Terminal Aerodrome Forecast
Issued by NWS

Home | Current Version | Previous Version | Text Only | Print | Product List | Glossary On
Versions: 1 2 3 4 5 6 7 8 9 10 11 12 13
906
FTUS42 KTBW 252322
TAFLAL
TAF
KLAL 252322Z 2600/2624 10008KT P6SM FEW050
     FM260500 05004KT P6SM SKC
     FM261400 07009KT P6SM SCT035
     FM261700 07011G18KT P6SM SCT040=

USA.gov is the U.S. government's official web portal to all federal, state and local government web resources and services.